sensor_id;sensor_type;location;lat;lon;timestamp;temperature;humidity
34815;DHT22;21030;53.912;15.214;2023-06-26T00:01:57;39.60;26.40
34815;DHT22;21030;53.912;15.214;2023-06-26T00:04:24;39.60;26.40
34815;DHT22;21030;53.912;15.214;2023-06-26T00:06:52;39.80;26.40
34815;DHT22;21030;53.912;15.214;2023-06-26T00:09:21;39.80;26.30
34815;DHT22;21030;53.912;15.214;2023-06-26T00:11:49;39.90;26.30
34815;DHT22;21030;53.912;15.214;2023-06-26T00:14:17;39.80;26.20
34815;DHT22;21030;53.912;15.214;2023-06-26T00:16:48;39.60;26.10
34815;DHT22;21030;53.912;15.214;2023-06-26T00:19:20;39.50;26.40
34815;DHT22;21030;53.912;15.214;2023-06-26T00:21:50;39.20;26.40
34815;DHT22;21030;53.912;15.214;2023-06-26T00:24:19;39.20;26.40
34815;DHT22;21030;53.912;15.214;2023-06-26T00:26:49;39.10;26.40
34815;DHT22;21030;53.912;15.214;2023-06-26T00:29:18;39.00;26.50
34815;DHT22;21030;53.912;15.214;2023-06-26T00:31:47;38.80;26.60
34815;DHT22;21030;53.912;15.214;2023-06-26T00:34:16;38.90;26.70
34815;DHT22;21030;53.912;15.214;2023-06-26T00:36:44;39.00;26.60
34815;DHT22;21030;53.912;15.214;2023-06-26T00:39:13;38.90;26.60
34815;DHT22;21030;53.912;15.214;2023-06-26T00:41:42;38.60;26.70
34815;DHT22;21030;53.912;15.214;2023-06-26T00:44:11;38.60;26.90
34815;DHT22;21030;53.912;15.214;2023-06-26T00:46:40;38.90;26.70
34815;DHT22;21030;53.912;15.214;2023-06-26T00:49:10;39.20;26.60
34815;DHT22;21030;53.912;15.214;2023-06-26T00:51:38;39.30;26.40
34815;DHT22;21030;53.912;15.214;2023-06-26T00:54:07;39.40;26.20
34815;DHT22;21030;53.912;15.214;2023-06-26T00:56:37;39.50;26.10
34815;DHT22;21030;53.912;15.214;2023-06-26T00:59:06;39.50;26.20
34815;DHT22;21030;53.912;15.214;2023-06-26T01:01:35;39.30;26.30
34815;DHT22;21030;53.912;15.214;2023-06-26T01:04:04;39.20;26.30
34815;DHT22;21030;53.912;15.214;2023-06-26T01:06:33;39.30;26.20
34815;DHT22;21030;53.912;15.214;2023-06-26T01:09:05;39.40;26.20
34815;DHT22;21030;53.912;15.214;2023-06-26T01:11:34;39.40;26.20
34815;DHT22;21030;53.912;15.214;2023-06-26T01:14:03;39.40;26.10
34815;DHT22;21030;53.912;15.214;2023-06-26T01:16:32;39.50;26.10
34815;DHT22;21030;53.912;15.214;2023-06-26T01:19:05;39.50;26.00
34815;DHT22;21030;53.912;15.214;2023-06-26T01:21:42;39.50;26.00
34815;DHT22;21030;53.912;15.214;2023-06-26T01:24:18;39.40;26.00
34815;DHT22;21030;53.912;15.214;2023-06-26T01:26:55;39.40;26.10
34815;DHT22;21030;53.912;15.214;2023-06-26T01:29:25;39.20;26.20
34815;DHT22;21030;53.912;15.214;2023-06-26T01:31:54;39.10;26.20
34815;DHT22;21030;53.912;15.214;2023-06-26T01:34:23;38.90;26.00
34815;DHT22;21030;53.912;15.214;2023-06-26T01:36:52;38.90;26.80
34815;DHT22;21030;53.912;15.214;2023-06-26T01:39:21;39.10;26.30
34815;DHT22;21030;53.912;15.214;2023-06-26T01:41:49;39.10;26.20
34815;DHT22;21030;53.912;15.214;2023-06-26T01:44:27;39.00;26.10
34815;DHT22;21030;53.912;15.214;2023-06-26T01:47:02;39.00;26.20
34815;DHT22;21030;53.912;15.214;2023-06-26T01:52:29;39.00;26.40
34815;DHT22;21030;53.912;15.214;2023-06-26T01:57:56;38.60;26.60
34815;DHT22;21030;53.912;15.214;2023-06-26T02:00:27;38.50;26.80
34815;DHT22;21030;53.912;15.214;2023-06-26T02:02:57;38.60;26.70
34815;DHT22;21030;53.912;15.214;2023-06-26T02:05:25;38.80;26.60
34815;DHT22;21030;53.912;15.214;2023-06-26T02:07:53;38.70;26.50
34815;DHT22;21030;53.912;15.214;2023-06-26T02:10:22;38.70;26.40
34815;DHT22;21030;53.912;15.214;2023-06-26T02:12:50;38.70;26.40
34815;DHT22;21030;53.912;15.214;2023-06-26T02:15:19;38.70;26.40
34815;DHT22;21030;53.912;15.214;2023-06-26T02:17:48;38.50;26.50
34815;DHT22;21030;53.912;15.214;2023-06-26T02:20:16;38.30;26.70
34815;DHT22;21030;53.912;15.214;2023-06-26T02:22:45;37.90;27.10
34815;DHT22;21030;53.912;15.214;2023-06-26T02:25:14;37.70;27.40
34815;DHT22;21030;53.912;15.214;2023-06-26T02:27:44;38.00;27.10
34815;DHT22;21030;53.912;15.214;2023-06-26T02:30:13;38.30;26.80
34815;DHT22;21030;53.912;15.214;2023-06-26T02:32:41;38.50;26.40
34815;DHT22;21030;53.912;15.214;2023-06-26T02:35:09;38.70;26.30
34815;DHT22;21030;53.912;15.214;2023-06-26T02:37:37;38.80;26.30
34815;DHT22;21030;53.912;15.214;2023-06-26T02:40:04;38.90;26.20
34815;DHT22;21030;53.912;15.214;2023-06-26T02:42:32;38.90;26.10
34815;DHT22;21030;53.912;15.214;2023-06-26T02:44:58;38.70;26.20
34815;DHT22;21030;53.912;15.214;2023-06-26T02:47:26;38.60;26.20
34815;DHT22;21030;53.912;15.214;2023-06-26T02:49:53;38.70;26.30
34815;DHT22;21030;53.912;15.214;2023-06-26T02:52:20;38.80;26.20
34815;DHT22;21030;53.912;15.214;2023-06-26T02:54:47;38.80;26.10
34815;DHT22;21030;53.912;15.214;2023-06-26T02:57:14;38.80;26.20
34815;DHT22;21030;53.912;15.214;2023-06-26T02:59:41;38.90;26.00
34815;DHT22;21030;53.912;15.214;2023-06-26T03:02:08;38.90;26.00
34815;DHT22;21030;53.912;15.214;2023-06-26T03:04:35;38.80;26.10
34815;DHT22;21030;53.912;15.214;2023-06-26T03:07:03;38.60;26.00
34815;DHT22;21030;53.912;15.214;2023-06-26T03:09:31;38.80;26.10
34815;DHT22;21030;53.912;15.214;2023-06-26T03:11:58;39.00;26.00
34815;DHT22;21030;53.912;15.214;2023-06-26T03:14:24;39.10;25.80
34815;DHT22;21030;53.912;15.214;2023-06-26T03:16:53;39.20;25.70
34815;DHT22;21030;53.912;15.214;2023-06-26T03:19:23;39.30;25.70
34815;DHT22;21030;53.912;15.214;2023-06-26T03:21:51;39.00;25.60
34815;DHT22;21030;53.912;15.214;2023-06-26T03:24:17;39.10;25.80
34815;DHT22;21030;53.912;15.214;2023-06-26T03:26:44;39.20;25.70
34815;DHT22;21030;53.912;15.214;2023-06-26T03:29:11;39.30;25.70
34815;DHT22;21030;53.912;15.214;2023-06-26T03:31:38;39.20;25.70
34815;DHT22;21030;53.912;15.214;2023-06-26T03:34:06;38.90;25.80
34815;DHT22;21030;53.912;15.214;2023-06-26T03:36:33;39.00;25.80
34815;DHT22;21030;53.912;15.214;2023-06-26T03:39:00;39.10;25.70
34815;DHT22;21030;53.912;15.214;2023-06-26T03:41:27;39.10;25.70
34815;DHT22;21030;53.912;15.214;2023-06-26T03:43:54;38.80;25.70
34815;DHT22;21030;53.912;15.214;2023-06-26T03:46:23;38.50;25.90
34815;DHT22;21030;53.912;15.214;2023-06-26T03:48:50;38.80;25.90
34815;DHT22;21030;53.912;15.214;2023-06-26T03:51:17;39.10;25.80
34815;DHT22;21030;53.912;15.214;2023-06-26T03:53:44;39.30;25.70
34815;DHT22;21030;53.912;15.214;2023-06-26T03:56:11;39.50;25.60
34815;DHT22;21030;53.912;15.214;2023-06-26T03:58:38;39.30;25.50
34815;DHT22;21030;53.912;15.214;2023-06-26T04:01:05;39.70;25.60
34815;DHT22;21030;53.912;15.214;2023-06-26T04:03:33;39.80;25.40
34815;DHT22;21030;53.912;15.214;2023-06-26T04:06:00;39.70;25.30
34815;DHT22;21030;53.912;15.214;2023-06-26T04:08:27;39.50;25.40
34815;DHT22;21030;53.912;15.214;2023-06-26T04:10:54;39.50;25.60
34815;DHT22;21030;53.912;15.214;2023-06-26T04:13:24;39.60;25.70
34815;DHT22;21030;53.912;15.214;2023-06-26T04:15:51;39.70;25.50
34815;DHT22;21030;53.912;15.214;2023-06-26T04:18:18;40.00;25.50
34815;DHT22;21030;53.912;15.214;2023-06-26T04:21:06;39.90;25.40
34815;DHT22;21030;53.912;15.214;2023-06-26T04:23:34;40.00;25.50
34815;DHT22;21030;53.912;15.214;2023-06-26T04:26:01;39.90;25.40
34815;DHT22;21030;53.912;15.214;2023-06-26T04:28:29;39.90;25.20
34815;DHT22;21030;53.912;15.214;2023-06-26T04:30:56;40.10;25.20
34815;DHT22;21030;53.912;15.214;2023-06-26T04:33:24;40.00;25.00
34815;DHT22;21030;53.912;15.214;2023-06-26T04:35:51;40.00;25.20
34815;DHT22;21030;53.912;15.214;2023-06-26T04:38:19;40.30;25.10
34815;DHT22;21030;53.912;15.214;2023-06-26T04:40:46;40.20;25.00
34815;DHT22;21030;53.912;15.214;2023-06-26T04:43:13;40.00;25.20
34815;DHT22;21030;53.912;15.214;2023-06-26T04:45:40;40.30;25.30
34815;DHT22;21030;53.912;15.214;2023-06-26T04:48:07;40.50;25.30
34815;DHT22;21030;53.912;15.214;2023-06-26T04:50:34;40.60;25.20
34815;DHT22;21030;53.912;15.214;2023-06-26T04:53:02;40.70;25.20
34815;DHT22;21030;53.912;15.214;2023-06-26T04:55:29;40.80;25.20
34815;DHT22;21030;53.912;15.214;2023-06-26T04:57:57;40.90;25.20
34815;DHT22;21030;53.912;15.214;2023-06-26T05:00:24;40.70;25.20
34815;DHT22;21030;53.912;15.214;2023-06-26T05:02:51;40.60;25.50
34815;DHT22;21030;53.912;15.214;2023-06-26T05:05:28;40.10;25.50
34815;DHT22;21030;53.912;15.214;2023-06-26T05:07:55;40.30;25.40
34815;DHT22;21030;53.912;15.214;2023-06-26T05:10:22;40.60;25.30
34815;DHT22;21030;53.912;15.214;2023-06-26T05:12:50;41.00;25.30
34815;DHT22;21030;53.912;15.214;2023-06-26T05:15:17;41.30;25.10
34815;DHT22;21030;53.912;15.214;2023-06-26T05:17:44;41.50;25.10
34815;DHT22;21030;53.912;15.214;2023-06-26T05:20:11;41.70;25.10
34815;DHT22;21030;53.912;15.214;2023-06-26T05:22:38;41.60;25.10
34815;DHT22;21030;53.912;15.214;2023-06-26T05:25:08;41.50;25.00
34815;DHT22;21030;53.912;15.214;2023-06-26T05:27:36;41.80;25.20
34815;DHT22;21030;53.912;15.214;2023-06-26T05:30:03;42.00;24.70
34815;DHT22;21030;53.912;15.214;2023-06-26T05:32:34;42.20;24.60
34815;DHT22;21030;53.912;15.214;2023-06-26T05:35:02;42.10;24.50
34815;DHT22;21030;53.912;15.214;2023-06-26T05:37:31;42.20;24.90
34815;DHT22;21030;53.912;15.214;2023-06-26T05:39:59;42.20;24.60
34815;DHT22;21030;53.912;15.214;2023-06-26T05:42:27;42.40;24.40
34815;DHT22;21030;53.912;15.214;2023-06-26T05:44:57;42.00;24.40
34815;DHT22;21030;53.912;15.214;2023-06-26T05:47:24;42.30;24.60
34815;DHT22;21030;53.912;15.214;2023-06-26T05:49:51;42.60;24.50
34815;DHT22;21030;53.912;15.214;2023-06-26T05:52:18;42.30;24.30
34815;DHT22;21030;53.912;15.214;2023-06-26T05:54:45;41.90;24.50
34815;DHT22;21030;53.912;15.214;2023-06-26T05:57:13;41.60;24.70
34815;DHT22;21030;53.912;15.214;2023-06-26T05:59:43;41.30;24.80
34815;DHT22;21030;53.912;15.214;2023-06-26T06:02:11;41.40;24.50
34815;DHT22;21030;53.912;15.214;2023-06-26T06:04:38;41.60;24.30
34815;DHT22;21030;53.912;15.214;2023-06-26T06:07:05;41.90;24.30
34815;DHT22;21030;53.912;15.214;2023-06-26T06:09:33;42.40;24.40
34815;DHT22;21030;53.912;15.214;2023-06-26T06:12:00;42.50;23.90
34815;DHT22;21030;53.912;15.214;2023-06-26T06:14:28;42.80;24.20
34815;DHT22;21030;53.912;15.214;2023-06-26T06:16:55;42.90;24.10
34815;DHT22;21030;53.912;15.214;2023-06-26T06:19:23;42.40;23.60
34815;DHT22;21030;53.912;15.214;2023-06-26T06:21:49;42.50;23.70
34815;DHT22;21030;53.912;15.214;2023-06-26T06:24:17;43.00;23.90
34815;DHT22;21030;53.912;15.214;2023-06-26T06:26:44;43.40;23.60
34815;DHT22;21030;53.912;15.214;2023-06-26T06:29:11;43.50;23.50
34815;DHT22;21030;53.912;15.214;2023-06-26T06:31:38;43.70;23.10
34815;DHT22;21030;53.912;15.214;2023-06-26T06:34:05;44.00;23.30
34815;DHT22;21030;53.912;15.214;2023-06-26T06:36:32;43.70;23.10
34815;DHT22;21030;53.912;15.214;2023-06-26T06:38:59;43.40;23.00
34815;DHT22;21030;53.912;15.214;2023-06-26T06:41:26;43.30;23.00
34815;DHT22;21030;53.912;15.214;2023-06-26T06:43:53;43.70;23.50
34815;DHT22;21030;53.912;15.214;2023-06-26T06:46:20;43.70;23.30
34815;DHT22;21030;53.912;15.214;2023-06-26T06:48:47;43.70;22.70
34815;DHT22;21030;53.912;15.214;2023-06-26T06:51:14;43.30;22.90
34815;DHT22;21030;53.912;15.214;2023-06-26T06:53:41;43.50;22.90
34815;DHT22;21030;53.912;15.214;2023-06-26T06:56:08;43.40;22.60
34815;DHT22;21030;53.912;15.214;2023-06-26T06:58:35;43.30;22.90
34815;DHT22;21030;53.912;15.214;2023-06-26T07:01:02;43.70;22.60
34815;DHT22;21030;53.912;15.214;2023-06-26T07:03:31;43.70;22.70
34815;DHT22;21030;53.912;15.214;2023-06-26T07:05:58;43.90;22.70
34815;DHT22;21030;53.912;15.214;2023-06-26T07:08:25;44.30;22.40
34815;DHT22;21030;53.912;15.214;2023-06-26T07:10:52;44.20;22.60
34815;DHT22;21030;53.912;15.214;2023-06-26T07:13:19;44.50;22.50
34815;DHT22;21030;53.912;15.214;2023-06-26T07:15:46;44.60;22.30
34815;DHT22;21030;53.912;15.214;2023-06-26T07:18:14;44.10;22.00
34815;DHT22;21030;53.912;15.214;2023-06-26T07:20:42;43.60;22.60
34815;DHT22;21030;53.912;15.214;2023-06-26T07:23:09;43.80;22.90
34815;DHT22;21030;53.912;15.214;2023-06-26T07:25:36;44.10;22.60
34815;DHT22;21030;53.912;15.214;2023-06-26T07:28:10;44.70;22.50
34815;DHT22;21030;53.912;15.214;2023-06-26T07:30:37;45.10;22.20
34815;DHT22;21030;53.912;15.214;2023-06-26T07:33:05;45.60;22.10
34815;DHT22;21030;53.912;15.214;2023-06-26T07:35:33;46.10;22.30
34815;DHT22;21030;53.912;15.214;2023-06-26T07:38:00;46.60;22.00
34815;DHT22;21030;53.912;15.214;2023-06-26T07:40:27;47.10;21.10
34815;DHT22;21030;53.912;15.214;2023-06-26T07:42:54;47.30;21.10
34815;DHT22;21030;53.912;15.214;2023-06-26T07:45:22;47.60;20.70
34815;DHT22;21030;53.912;15.214;2023-06-26T07:47:52;47.80;20.40
34815;DHT22;21030;53.912;15.214;2023-06-26T07:50:20;48.00;20.30
34815;DHT22;21030;53.912;15.214;2023-06-26T07:52:49;47.30;20.20
34815;DHT22;21030;53.912;15.214;2023-06-26T07:55:19;47.00;20.70
34815;DHT22;21030;53.912;15.214;2023-06-26T07:57:46;47.50;20.30
34815;DHT22;21030;53.912;15.214;2023-06-26T08:00:13;47.90;20.30
34815;DHT22;21030;53.912;15.214;2023-06-26T08:02:40;48.10;20.00
34815;DHT22;21030;53.912;15.214;2023-06-26T08:05:07;47.60;19.90
34815;DHT22;21030;53.912;15.214;2023-06-26T08:07:34;47.80;20.20
34815;DHT22;21030;53.912;15.214;2023-06-26T08:10:01;48.00;20.30
34815;DHT22;21030;53.912;15.214;2023-06-26T08:12:28;48.40;20.40
34815;DHT22;21030;53.912;15.214;2023-06-26T08:14:55;48.50;20.00
34815;DHT22;21030;53.912;15.214;2023-06-26T08:17:22;48.50;20.60
34815;DHT22;21030;53.912;15.214;2023-06-26T08:19:49;48.40;20.20
34815;DHT22;21030;53.912;15.214;2023-06-26T08:22:16;49.00;20.30
34815;DHT22;21030;53.912;15.214;2023-06-26T08:24:44;49.00;19.70
34815;DHT22;21030;53.912;15.214;2023-06-26T08:27:11;49.20;19.90
34815;DHT22;21030;53.912;15.214;2023-06-26T08:29:38;49.20;19.90
34815;DHT22;21030;53.912;15.214;2023-06-26T08:32:05;49.20;19.80
34815;DHT22;21030;53.912;15.214;2023-06-26T08:34:32;48.70;20.20
34815;DHT22;21030;53.912;15.214;2023-06-26T08:36:59;48.80;20.50
34815;DHT22;21030;53.912;15.214;2023-06-26T08:39:26;48.50;19.90
34815;DHT22;21030;53.912;15.214;2023-06-26T08:41:53;48.50;20.10
34815;DHT22;21030;53.912;15.214;2023-06-26T08:44:20;49.20;20.40
34815;DHT22;21030;53.912;15.214;2023-06-26T08:46:51;49.30;20.20
34815;DHT22;21030;53.912;15.214;2023-06-26T08:49:37;48.50;20.00
34815;DHT22;21030;53.912;15.214;2023-06-26T08:52:30;48.40;20.30
34815;DHT22;21030;53.912;15.214;2023-06-26T08:55:02;48.80;20.50
34815;DHT22;21030;53.912;15.214;2023-06-26T08:57:30;47.60;20.60
34815;DHT22;21030;53.912;15.214;2023-06-26T08:59:58;48.40;21.10
34815;DHT22;21030;53.912;15.214;2023-06-26T09:02:26;48.60;20.50
34815;DHT22;21030;53.912;15.214;2023-06-26T09:04:53;48.90;20.40
34815;DHT22;21030;53.912;15.214;2023-06-26T09:07:20;48.80;20.10
34815;DHT22;21030;53.912;15.214;2023-06-26T09:09:47;48.70;20.20
34815;DHT22;21030;53.912;15.214;2023-06-26T09:12:14;48.80;20.70
34815;DHT22;21030;53.912;15.214;2023-06-26T09:14:42;49.00;20.60
34815;DHT22;21030;53.912;15.214;2023-06-26T09:17:09;49.80;21.10
34815;DHT22;21030;53.912;15.214;2023-06-26T09:19:37;50.50;19.80
34815;DHT22;21030;53.912;15.214;2023-06-26T09:22:11;51.00;19.60
34815;DHT22;21030;53.912;15.214;2023-06-26T09:24:41;51.00;19.20
34815;DHT22;21030;53.912;15.214;2023-06-26T09:27:09;49.90;19.10
34815;DHT22;21030;53.912;15.214;2023-06-26T09:29:36;49.30;19.90
34815;DHT22;21030;53.912;15.214;2023-06-26T09:32:04;49.00;20.10
34815;DHT22;21030;53.912;15.214;2023-06-26T09:34:32;48.80;20.10
34815;DHT22;21030;53.912;15.214;2023-06-26T09:37:01;48.40;20.80
34815;DHT22;21030;53.912;15.214;2023-06-26T09:39:32;48.40;21.30
34815;DHT22;21030;53.912;15.214;2023-06-26T09:41:59;47.80;21.40
34815;DHT22;21030;53.912;15.214;2023-06-26T09:44:33;47.30;21.50
34815;DHT22;21030;53.912;15.214;2023-06-26T09:47:03;47.90;22.10
34815;DHT22;21030;53.912;15.214;2023-06-26T09:49:31;48.10;21.10
34815;DHT22;21030;53.912;15.214;2023-06-26T09:52:00;49.00;21.70
34815;DHT22;21030;53.912;15.214;2023-06-26T09:54:28;49.70;20.40
34815;DHT22;21030;53.912;15.214;2023-06-26T09:57:09;50.20;20.10
34815;DHT22;21030;53.912;15.214;2023-06-26T09:59:37;50.30;19.10
34815;DHT22;21030;53.912;15.214;2023-06-26T10:02:04;50.10;19.00
34815;DHT22;21030;53.912;15.214;2023-06-26T10:04:32;49.60;19.20
34815;DHT22;21030;53.912;15.214;2023-06-26T10:07:02;49.40;19.80
34815;DHT22;21030;53.912;15.214;2023-06-26T10:09:31;48.20;19.90
34815;DHT22;21030;53.912;15.214;2023-06-26T10:12:02;48.10;20.60
34815;DHT22;21030;53.912;15.214;2023-06-26T10:14:37;48.00;21.00
34815;DHT22;21030;53.912;15.214;2023-06-26T10:17:13;47.60;21.20
34815;DHT22;21030;53.912;15.214;2023-06-26T10:19:43;47.50;21.70
34815;DHT22;21030;53.912;15.214;2023-06-26T10:22:17;47.40;21.90
34815;DHT22;21030;53.912;15.214;2023-06-26T10:24:45;47.30;21.10
34815;DHT22;21030;53.912;15.214;2023-06-26T10:27:21;47.50;20.40
34815;DHT22;21030;53.912;15.214;2023-06-26T10:29:55;48.50;20.50
34815;DHT22;21030;53.912;15.214;2023-06-26T10:32:25;49.00;20.20
34815;DHT22;21030;53.912;15.214;2023-06-26T10:34:53;49.10;20.00
34815;DHT22;21030;53.912;15.214;2023-06-26T10:37:20;49.10;20.30
34815;DHT22;21030;53.912;15.214;2023-06-26T10:39:49;48.80;20.10
34815;DHT22;21030;53.912;15.214;2023-06-26T10:42:17;48.40;20.60
34815;DHT22;21030;53.912;15.214;2023-06-26T10:44:48;48.50;20.80
34815;DHT22;21030;53.912;15.214;2023-06-26T10:47:32;48.00;20.80
34815;DHT22;21030;53.912;15.214;2023-06-26T10:55:36;47.30;21.50
34815;DHT22;21030;53.912;15.214;2023-06-26T10:58:03;47.60;21.20
34815;DHT22;21030;53.912;15.214;2023-06-26T11:00:30;47.60;21.10
34815;DHT22;21030;53.912;15.214;2023-06-26T11:02:59;47.70;20.80
34815;DHT22;21030;53.912;15.214;2023-06-26T11:05:28;48.30;20.70
34815;DHT22;21030;53.912;15.214;2023-06-26T11:08:06;48.30;20.30
34815;DHT22;21030;53.912;15.214;2023-06-26T11:10:51;48.00;20.40
34815;DHT22;21030;53.912;15.214;2023-06-26T11:13:20;48.40;20.50
34815;DHT22;21030;53.912;15.214;2023-06-26T11:15:49;48.70;20.20
34815;DHT22;21030;53.912;15.214;2023-06-26T11:18:17;49.10;19.90
34815;DHT22;21030;53.912;15.214;2023-06-26T11:20:45;48.80;19.50
34815;DHT22;21030;53.912;15.214;2023-06-26T11:23:12;48.40;19.80
34815;DHT22;21030;53.912;15.214;2023-06-26T11:25:39;48.40;20.10
34815;DHT22;21030;53.912;15.214;2023-06-26T11:28:09;48.40;19.90
34815;DHT22;21030;53.912;15.214;2023-06-26T11:30:37;48.40;20.00
34815;DHT22;21030;53.912;15.214;2023-06-26T11:33:08;49.30;19.90
34815;DHT22;21030;53.912;15.214;2023-06-26T11:35:36;49.20;19.60
34815;DHT22;21030;53.912;15.214;2023-06-26T11:38:04;49.10;19.30
34815;DHT22;21030;53.912;15.214;2023-06-26T11:40:35;49.70;19.60
34815;DHT22;21030;53.912;15.214;2023-06-26T11:43:09;50.30;19.50
34815;DHT22;21030;53.912;15.214;2023-06-26T11:45:36;49.80;18.90
34815;DHT22;21030;53.912;15.214;2023-06-26T11:48:03;49.70;19.20
34815;DHT22;21030;53.912;15.214;2023-06-26T11:50:31;49.60;19.40
34815;DHT22;21030;53.912;15.214;2023-06-26T11:52:59;49.40;19.30
34815;DHT22;21030;53.912;15.214;2023-06-26T11:55:26;49.10;19.60
34815;DHT22;21030;53.912;15.214;2023-06-26T11:57:54;48.50;19.80
34815;DHT22;21030;53.912;15.214;2023-06-26T12:00:22;48.20;20.00
34815;DHT22;21030;53.912;15.214;2023-06-26T12:02:49;47.40;20.20
34815;DHT22;21030;53.912;15.214;2023-06-26T12:05:20;47.20;21.00
34815;DHT22;21030;53.912;15.214;2023-06-26T12:07:50;47.70;20.90
34815;DHT22;21030;53.912;15.214;2023-06-26T12:10:21;48.20;20.70
34815;DHT22;21030;53.912;15.214;2023-06-26T12:12:48;48.00;20.30
34815;DHT22;21030;53.912;15.214;2023-06-26T12:15:15;47.60;20.20
34815;DHT22;21030;53.912;15.214;2023-06-26T12:17:43;48.00;20.20
34815;DHT22;21030;53.912;15.214;2023-06-26T12:20:23;48.20;19.80
34815;DHT22;21030;53.912;15.214;2023-06-26T12:22:53;48.80;19.60
34815;DHT22;21030;53.912;15.214;2023-06-26T12:25:23;49.30;19.20
34815;DHT22;21030;53.912;15.214;2023-06-26T12:27:51;49.50;19.20
34815;DHT22;21030;53.912;15.214;2023-06-26T12:30:18;49.80;19.20
34815;DHT22;21030;53.912;15.214;2023-06-26T12:32:45;49.70;18.90
34815;DHT22;21030;53.912;15.214;2023-06-26T12:35:14;50.00;19.00
34815;DHT22;21030;53.912;15.214;2023-06-26T12:37:43;50.40;19.10
34815;DHT22;21030;53.912;15.214;2023-06-26T12:40:18;50.30;19.20
34815;DHT22;21030;53.912;15.214;2023-06-26T12:42:46;50.70;19.00
34815;DHT22;21030;53.912;15.214;2023-06-26T12:45:14;51.10;18.80
34815;DHT22;21030;53.912;15.214;2023-06-26T12:48:11;51.00;18.30
34815;DHT22;21030;53.912;15.214;2023-06-26T12:50:44;50.10;18.20
34815;DHT22;21030;53.912;15.214;2023-06-26T12:53:11;49.50;19.10
34815;DHT22;21030;53.912;15.214;2023-06-26T12:55:40;49.60;19.40
34815;DHT22;21030;53.912;15.214;2023-06-26T12:58:07;49.70;19.00
34815;DHT22;21030;53.912;15.214;2023-06-26T13:00:36;49.70;18.80
34815;DHT22;21030;53.912;15.214;2023-06-26T13:03:04;49.70;19.20
34815;DHT22;21030;53.912;15.214;2023-06-26T13:05:31;50.30;18.90
34815;DHT22;21030;53.912;15.214;2023-06-26T13:07:58;49.90;18.80
34815;DHT22;21030;53.912;15.214;2023-06-26T13:10:28;49.00;18.90
34815;DHT22;21030;53.912;15.214;2023-06-26T13:12:55;47.70;19.80
34815;DHT22;21030;53.912;15.214;2023-06-26T13:15:22;46.60;20.80
34815;DHT22;21030;53.912;15.214;2023-06-26T13:17:49;45.60;21.50
34815;DHT22;21030;53.912;15.214;2023-06-26T13:20:16;45.50;22.10
34815;DHT22;21030;53.912;15.214;2023-06-26T13:22:43;45.30;22.00
34815;DHT22;21030;53.912;15.214;2023-06-26T13:25:12;45.40;21.90
34815;DHT22;21030;53.912;15.214;2023-06-26T13:27:39;46.20;21.80
34815;DHT22;21030;53.912;15.214;2023-06-26T13:30:07;46.30;21.30
34815;DHT22;21030;53.912;15.214;2023-06-26T13:32:34;47.00;21.00
34815;DHT22;21030;53.912;15.214;2023-06-26T13:35:01;47.40;21.10
34815;DHT22;21030;53.912;15.214;2023-06-26T13:37:30;47.50;20.80
34815;DHT22;21030;53.912;15.214;2023-06-26T13:39:57;47.70;20.60
34815;DHT22;21030;53.912;15.214;2023-06-26T13:42:26;47.70;20.60
34815;DHT22;21030;53.912;15.214;2023-06-26T13:44:53;47.80;20.40
34815;DHT22;21030;53.912;15.214;2023-06-26T13:47:30;47.50;20.60
34815;DHT22;21030;53.912;15.214;2023-06-26T13:49:57;48.50;20.70
34815;DHT22;21030;53.912;15.214;2023-06-26T13:52:24;48.00;20.50
34815;DHT22;21030;53.912;15.214;2023-06-26T13:54:52;47.90;20.60
34815;DHT22;21030;53.912;15.214;2023-06-26T13:57:19;47.30;21.10
34815;DHT22;21030;53.912;15.214;2023-06-26T13:59:49;46.90;21.10
34815;DHT22;21030;53.912;15.214;2023-06-26T14:02:16;47.20;21.10
34815;DHT22;21030;53.912;15.214;2023-06-26T14:04:43;47.50;21.00
34815;DHT22;21030;53.912;15.214;2023-06-26T14:07:10;47.50;20.80
34815;DHT22;21030;53.912;15.214;2023-06-26T14:09:37;46.90;20.90
34815;DHT22;21030;53.912;15.214;2023-06-26T14:12:04;47.00;21.20
34815;DHT22;21030;53.912;15.214;2023-06-26T14:14:32;46.00;21.40
34815;DHT22;21030;53.912;15.214;2023-06-26T14:16:59;45.60;21.90
34815;DHT22;21030;53.912;15.214;2023-06-26T14:19:26;45.80;22.00
34815;DHT22;21030;53.912;15.214;2023-06-26T14:21:53;45.40;22.10
34815;DHT22;21030;53.912;15.214;2023-06-26T14:24:20;45.10;22.60
34815;DHT22;21030;53.912;15.214;2023-06-26T14:26:47;45.70;22.80
34815;DHT22;21030;53.912;15.214;2023-06-26T14:29:14;45.40;22.40
34815;DHT22;21030;53.912;15.214;2023-06-26T14:31:44;45.30;23.10
34815;DHT22;21030;53.912;15.214;2023-06-26T14:34:11;45.40;22.70
34815;DHT22;21030;53.912;15.214;2023-06-26T14:36:38;44.40;22.90
34815;DHT22;21030;53.912;15.214;2023-06-26T14:39:05;43.70;23.60
34815;DHT22;21030;53.912;15.214;2023-06-26T14:41:33;44.20;24.10
34815;DHT22;21030;53.912;15.214;2023-06-26T14:44:00;43.80;23.90
34815;DHT22;21030;53.912;15.214;2023-06-26T14:46:28;43.60;24.20
34815;DHT22;21030;53.912;15.214;2023-06-26T14:48:56;43.20;24.20
34815;DHT22;21030;53.912;15.214;2023-06-26T14:51:23;43.50;24.30
34815;DHT22;21030;53.912;15.214;2023-06-26T14:53:52;43.10;24.60
34815;DHT22;21030;53.912;15.214;2023-06-26T14:56:22;43.40;24.60
34815;DHT22;21030;53.912;15.214;2023-06-26T14:58:50;43.00;24.90
34815;DHT22;21030;53.912;15.214;2023-06-26T15:01:19;43.20;24.90
34815;DHT22;21030;53.912;15.214;2023-06-26T15:03:47;43.70;24.90
34815;DHT22;21030;53.912;15.214;2023-06-26T15:06:14;43.80;24.80
34815;DHT22;21030;53.912;15.214;2023-06-26T15:08:41;43.80;24.70
34815;DHT22;21030;53.912;15.214;2023-06-26T15:11:08;43.80;24.70
34815;DHT22;21030;53.912;15.214;2023-06-26T15:13:36;44.00;24.60
34815;DHT22;21030;53.912;15.214;2023-06-26T15:16:03;44.20;24.50
34815;DHT22;21030;53.912;15.214;2023-06-26T15:18:30;44.60;24.60
34815;DHT22;21030;53.912;15.214;2023-06-26T15:20:57;44.40;24.40
34815;DHT22;21030;53.912;15.214;2023-06-26T15:23:27;44.20;24.50
34815;DHT22;21030;53.912;15.214;2023-06-26T15:25:57;44.10;24.60
34815;DHT22;21030;53.912;15.214;2023-06-26T15:28:23;44.40;24.70
34815;DHT22;21030;53.912;15.214;2023-06-26T15:30:51;44.60;24.70
34815;DHT22;21030;53.912;15.214;2023-06-26T15:33:18;44.60;24.50
34815;DHT22;21030;53.912;15.214;2023-06-26T15:35:45;44.60;24.60